Time;durP1;ratioP1;P1;durP2;ratioP2;P2;SDS_P1;SDS_P2;PMS_P1;PMS_P2;Temp;Humidity;BMP_temperature;BMP_pressure;BME280_temperature;BME280_humidity;BME280_pressure;Samples;Min_cycle;Max_cycle;Signal;HPM_P1;HPM_P2
2023/06/15 00:00:31;;;;;;;5.47;2.03;;;17.30;94.70;;;;;;5049563;28;20133;-77
2023/06/15 00:02:57;;;;;;;4.28;2.28;;;17.30;94.80;;;;;;5032893;28;20041;-77
2023/06/15 00:05:23;;;;;;;6.43;2.30;;;17.20;95.00;;;;;;5032788;28;20072;-77
2023/06/15 00:07:48;;;;;;;5.07;2.30;;;17.20;95.10;;;;;;5033080;28;20037;-77
2023/06/15 00:10:14;;;;;;;7.80;2.00;;;17.20;95.20;;;;;;5049742;28;20048;-77
2023/06/15 00:12:40;;;;;;;3.40;2.00;;;17.10;95.30;;;;;;5049872;28;20033;-77
2023/06/15 00:15:06;;;;;;;5.53;2.47;;;17.10;95.60;;;;;;5032852;28;20059;-77
2023/06/15 00:17:31;;;;;;;3.33;1.95;;;16.90;95.90;;;;;;5049224;28;20121;-77
2023/06/15 00:20:00;;;;;;;5.07;1.98;;;16.90;96.20;;;;;;5049445;28;20033;-77
2023/06/15 00:22:26;;;;;;;4.57;2.20;;;16.90;96.40;;;;;;5032750;28;20041;-77
2023/06/15 00:24:55;;;;;;;3.38;2.22;;;16.80;96.60;;;;;;5032703;28;20074;-77
2023/06/15 00:27:21;;;;;;;6.28;2.05;;;16.80;97.00;;;;;;5032611;28;20496;-77
2023/06/15 00:29:46;;;;;;;5.00;2.40;;;16.70;97.10;;;;;;5029632;28;20091;-77
2023/06/15 00:32:12;;;;;;;4.93;2.25;;;16.70;97.30;;;;;;5049197;28;20038;-77
2023/06/15 00:34:37;;;;;;;3.90;2.05;;;16.60;97.30;;;;;;5032905;28;20148;-77
2023/06/15 00:37:03;;;;;;;7.47;2.25;;;16.60;97.50;;;;;;5032558;28;20096;-77
2023/06/15 00:39:28;;;;;;;2.80;1.90;;;16.50;97.70;;;;;;5032438;28;20639;-77
2023/06/15 00:41:54;;;;;;;4.93;2.00;;;16.50;97.80;;;;;;5049217;28;20049;-77
2023/06/15 00:44:20;;;;;;;5.10;2.67;;;16.50;98.00;;;;;;5032503;28;20041;-77
2023/06/15 00:46:45;;;;;;;3.72;2.05;;;16.40;98.10;;;;;;5032365;28;20033;-77
2023/06/15 00:49:11;;;;;;;3.53;2.30;;;16.40;98.30;;;;;;5049073;28;20041;-77
2023/06/15 00:51:38;;;;;;;4.45;2.28;;;16.30;98.40;;;;;;5031945;28;20030;-77
2023/06/15 00:54:05;;;;;;;4.15;2.40;;;16.30;98.50;;;;;;5048761;28;20501;-77
2023/06/15 00:56:31;;;;;;;3.25;2.20;;;16.30;98.80;;;;;;5048745;28;20116;-77
2023/06/15 00:58:57;;;;;;;4.22;2.25;;;16.30;98.90;;;;;;5032422;28;20129;-77
2023/06/15 01:01:23;;;;;;;4.68;2.13;;;16.20;99.00;;;;;;5031906;28;20049;-77
2023/06/15 01:03:50;;;;;;;5.25;2.42;;;16.20;99.30;;;;;;5032061;28;20041;-77
2023/06/15 01:06:19;;;;;;;4.95;2.40;;;16.20;99.40;;;;;;5032070;28;20097;-77
2023/06/15 01:08:47;;;;;;;3.38;2.45;;;16.20;99.60;;;;;;5031987;28;20087;-77
2023/06/15 01:11:14;;;;;;;5.25;3.10;;;16.10;99.60;;;;;;5031562;28;20033;-77
2023/06/15 01:13:42;;;;;;;5.63;2.33;;;16.10;99.80;;;;;;5031863;28;20042;-77
2023/06/15 01:16:16;;;;;;;4.22;2.22;;;16.10;99.90;;;;;;5031631;28;20040;-77
2023/06/15 01:18:46;;;;;;;5.22;2.42;;;16.10;99.90;;;;;;5048347;28;20095;-77
2023/06/15 01:21:13;;;;;;;4.60;2.70;;;16.00;99.90;;;;;;5024003;28;20048;-77
2023/06/15 01:23:54;;;;;;;4.50;2.50;;;16.00;99.90;;;;;;5031982;28;20108;-77
2023/06/15 01:26:24;;;;;;;5.10;2.60;;;16.00;99.90;;;;;;5048423;28;20042;-77
2023/06/15 01:28:50;;;;;;;3.83;2.40;;;15.90;99.90;;;;;;5031550;28;20818;-77
2023/06/15 01:31:17;;;;;;;4.22;2.70;;;16.00;99.90;;;;;;5047857;28;20037;-77
2023/06/15 01:33:47;;;;;;;2.85;2.13;;;15.90;99.90;;;;;;5031594;28;20092;-77
2023/06/15 01:36:12;;;;;;;4.82;2.58;;;15.90;99.90;;;;;;5024055;28;20168;-77
2023/06/15 01:38:38;;;;;;;6.43;3.17;;;16.00;99.90;;;;;;5048264;28;20077;-77
2023/06/15 01:41:06;;;;;;;4.55;2.63;;;15.90;99.90;;;;;;5031130;28;20068;-77
2023/06/15 01:43:35;;;;;;;3.40;2.38;;;15.90;99.90;;;;;;5031312;28;20038;-77
2023/06/15 01:46:01;;;;;;;4.15;2.42;;;15.90;99.90;;;;;;5031225;28;20049;-77
2023/06/15 01:48:27;;;;;;;4.00;2.50;;;15.80;99.90;;;;;;5031142;28;20545;-77
2023/06/15 01:50:55;;;;;;;5.65;3.15;;;15.90;99.90;;;;;;5047895;28;20129;-77
2023/06/15 01:53:20;;;;;;;4.10;2.78;;;15.80;99.90;;;;;;5047543;28;20234;-77
2023/06/15 01:55:46;;;;;;;3.92;2.75;;;15.80;99.90;;;;;;5031351;28;20381;-77
2023/06/15 01:58:15;;;;;;;4.43;2.80;;;15.80;99.90;;;;;;5047603;28;20072;-77
2023/06/15 02:00:41;;;;;;;3.40;2.10;;;15.70;99.90;;;;;;5031013;28;20447;-78
2023/06/15 02:03:07;;;;;;;5.68;2.75;;;15.60;99.90;;;;;;5047214;28;20091;-77
2023/06/15 02:05:38;;;;;;;5.38;2.47;;;15.40;99.90;;;;;;5030473;28;20049;-77
2023/06/15 02:08:08;;;;;;;4.88;2.78;;;15.30;99.90;;;;;;5047178;28;20112;-77
2023/06/15 02:10:34;;;;;;;4.47;2.40;;;15.20;99.90;;;;;;5030744;28;20037;-77
2023/06/15 02:13:00;;;;;;;4.40;2.53;;;15.20;99.90;;;;;;5046939;28;20041;-77
2023/06/15 02:15:26;;;;;;;6.45;3.10;;;15.20;99.90;;;;;;5029968;28;20039;-77
2023/06/15 02:17:59;;;;;;;4.30;2.70;;;15.10;99.90;;;;;;5047088;28;20120;-77
2023/06/15 02:20:28;;;;;;;4.72;2.47;;;15.10;99.90;;;;;;5047118;28;20037;-77
2023/06/15 02:22:57;;;;;;;5.78;2.67;;;15.10;99.90;;;;;;5046742;28;20049;-77
2023/06/15 02:25:23;;;;;;;5.38;2.85;;;15.00;99.90;;;;;;5030580;28;20171;-77
2023/06/15 02:27:49;;;;;;;4.85;3.17;;;14.90;99.90;;;;;;5030437;28;20037;-77
2023/06/15 02:30:15;;;;;;;3.25;2.47;;;14.80;99.90;;;;;;5030321;28;20029;-77
2023/06/15 02:32:42;;;;;;;4.32;2.90;;;14.80;99.90;;;;;;5030429;28;20187;-77
2023/06/15 02:35:10;;;;;;;5.55;3.28;;;14.90;99.90;;;;;;5046845;28;20038;-77
2023/06/15 02:37:36;;;;;;;5.38;3.00;;;14.90;99.90;;;;;;5030062;28;20033;-77
2023/06/15 02:40:06;;;;;;;4.30;2.90;;;14.80;99.90;;;;;;5030148;28;20033;-77
2023/06/15 02:42:31;;;;;;;4.35;2.80;;;14.80;99.90;;;;;;5046575;28;20041;-77
2023/06/15 02:44:57;;;;;;;6.22;3.10;;;14.80;99.90;;;;;;5030023;28;20037;-77
2023/06/15 02:47:23;;;;;;;4.53;2.88;;;14.70;99.90;;;;;;5046839;28;20033;-77
2023/06/15 02:49:48;;;;;;;7.80;3.03;;;14.60;99.90;;;;;;5029958;28;20044;-77
2023/06/15 02:52:14;;;;;;;6.88;3.30;;;14.60;99.90;;;;;;5046502;28;20038;-77
2023/06/15 02:54:40;;;;;;;4.47;2.90;;;14.60;99.90;;;;;;5046539;28;20108;-78
2023/06/15 02:57:08;;;;;;;5.43;2.70;;;14.60;99.90;;;;;;5030294;28;20424;-77
2023/06/15 02:59:40;;;;;;;4.88;3.10;;;14.60;99.90;;;;;;5030130;28;20483;-78
2023/06/15 03:02:06;;;;;;;6.05;3.03;;;14.60;99.90;;;;;;5046551;28;20409;-78
2023/06/15 03:04:32;;;;;;;4.70;3.03;;;14.60;99.90;;;;;;5046701;28;20097;-78
2023/06/15 03:06:59;;;;;;;5.15;3.13;;;14.50;99.90;;;;;;5029939;28;20049;-78
2023/06/15 03:09:24;;;;;;;5.68;2.80;;;14.50;99.90;;;;;;5046824;28;20403;-78
2023/06/15 03:11:52;;;;;;;4.13;2.80;;;14.40;99.90;;;;;;5046116;28;20128;-78
2023/06/15 03:14:18;;;;;;;4.95;2.90;;;14.40;99.90;;;;;;5046822;28;20045;-78
2023/06/15 03:16:46;;;;;;;4.00;2.90;;;14.30;99.90;;;;;;5029743;28;20060;-78
2023/06/15 03:19:15;;;;;;;4.55;2.80;;;14.30;99.90;;;;;;5046631;28;20033;-78
2023/06/15 03:21:41;;;;;;;3.85;2.80;;;14.30;99.90;;;;;;5029423;28;20052;-78
2023/06/15 03:24:10;;;;;;;4.80;2.92;;;14.30;99.90;;;;;;5029617;28;20116;-78
2023/06/15 03:26:37;;;;;;;3.72;2.60;;;14.30;99.90;;;;;;5048076;28;20332;-77
2023/06/15 03:29:03;;;;;;;4.30;2.90;;;14.30;99.90;;;;;;5050354;28;20045;-77
2023/06/15 03:31:33;;;;;;;4.90;3.03;;;14.40;99.90;;;;;;5033417;28;20041;-77
2023/06/15 03:34:01;;;;;;;3.85;2.83;;;14.30;99.90;;;;;;5050289;28;20527;-78
2023/06/15 03:36:31;;;;;;;6.70;3.00;;;14.40;99.90;;;;;;5033919;28;20251;-77
2023/06/15 03:38:57;;;;;;;5.47;2.83;;;14.40;99.90;;;;;;5050248;28;20042;-78
2023/06/15 03:41:24;;;;;;;3.97;2.88;;;14.40;99.90;;;;;;5033574;28;20124;-78
2023/06/15 03:43:49;;;;;;;4.13;3.10;;;14.30;99.90;;;;;;5050329;28;20037;-78
2023/06/15 03:46:15;;;;;;;5.97;3.20;;;14.30;99.90;;;;;;5033584;28;20044;-78
2023/06/15 03:48:41;;;;;;;7.80;3.22;;;14.30;99.90;;;;;;5050175;28;20152;-77
2023/06/15 03:51:06;;;;;;;5.80;3.22;;;14.30;99.90;;;;;;5032898;28;20073;-78
2023/06/15 03:53:32;;;;;;;4.63;3.10;;;14.40;99.90;;;;;;5033563;28;20064;-78
2023/06/15 03:55:57;;;;;;;5.10;3.10;;;14.40;99.90;;;;;;5049972;28;20096;-78
2023/06/15 03:58:24;;;;;;;4.78;2.90;;;14.40;99.90;;;;;;5050268;28;20037;-78
2023/06/15 04:00:50;;;;;;;6.55;3.17;;;14.40;99.90;;;;;;5050131;28;20049;-78
2023/06/15 04:03:16;;;;;;;3.67;2.75;;;14.40;99.90;;;;;;5032848;28;20045;-78
2023/06/15 04:05:42;;;;;;;4.45;3.30;;;14.40;99.90;;;;;;5033178;28;20420;-78
2023/06/15 04:08:08;;;;;;;4.28;2.90;;;14.50;99.90;;;;;;5033254;28;20112;-78
2023/06/15 04:10:34;;;;;;;4.18;2.88;;;14.50;99.90;;;;;;5049798;28;20574;-78
2023/06/15 04:13:00;;;;;;;6.32;3.13;;;14.50;99.90;;;;;;5032630;28;20073;-78
2023/06/15 04:15:26;;;;;;;7.25;2.70;;;14.60;99.90;;;;;;5033088;28;20065;-78
2023/06/15 04:17:51;;;;;;;6.93;3.38;;;14.60;99.90;;;;;;5049675;28;20042;-78
2023/06/15 04:20:17;;;;;;;6.20;3.22;;;14.60;99.90;;;;;;5033276;28;20041;-78
2023/06/15 04:22:42;;;;;;;8.10;3.33;;;14.70;99.90;;;;;;5049337;28;20025;-78
2023/06/15 04:25:08;;;;;;;8.27;3.45;;;14.70;99.90;;;;;;5032573;28;20091;-78
2023/06/15 04:27:35;;;;;;;7.03;3.50;;;14.80;99.90;;;;;;5032633;28;20029;-78
2023/06/15 04:30:01;;;;;;;5.60;3.28;;;14.90;99.90;;;;;;5048878;28;20045;-78
2023/06/15 04:32:30;;;;;;;5.05;2.90;;;15.00;99.90;;;;;;5049089;28;20421;-78
2023/06/15 04:34:56;;;;;;;7.22;3.08;;;15.10;99.90;;;;;;5032215;28;20038;-78
2023/06/15 04:37:23;;;;;;;4.00;2.95;;;15.10;99.90;;;;;;5048828;28;20408;-78
2023/06/15 04:39:49;;;;;;;6.38;2.90;;;15.20;99.90;;;;;;5032408;28;20076;-78
2023/06/15 04:42:17;;;;;;;6.45;2.97;;;15.40;99.90;;;;;;5048902;28;20037;-78
2023/06/15 04:44:43;;;;;;;5.82;3.08;;;15.50;99.90;;;;;;5032466;28;20045;-78
2023/06/15 04:47:09;;;;;;;6.32;2.90;;;15.50;99.90;;;;;;5048436;28;20394;-78
2023/06/15 04:49:34;;;;;;;4.93;2.97;;;15.60;99.90;;;;;;5048686;28;20041;-78
2023/06/15 04:52:00;;;;;;;6.63;3.30;;;15.70;99.90;;;;;;5031655;28;20458;-78
2023/06/15 04:54:25;;;;;;;7.22;3.25;;;15.80;99.90;;;;;;5048974;28;20041;-78
2023/06/15 04:56:51;;;;;;;10.45;3.67;;;15.90;99.90;;;;;;5032052;28;20073;-78
2023/06/15 04:59:17;;;;;;;5.45;3.70;;;16.00;99.90;;;;;;5048403;28;20033;-78
2023/06/15 05:01:42;;;;;;;4.97;3.65;;;16.20;99.90;;;;;;5032134;28;20110;-78
2023/06/15 05:04:08;;;;;;;7.68;3.55;;;16.30;99.90;;;;;;5048678;28;20041;-78
2023/06/15 05:06:34;;;;;;;7.75;3.90;;;16.50;99.90;;;;;;5048834;28;20041;-79
2023/06/15 05:08:59;;;;;;;5.28;3.78;;;16.60;99.90;;;;;;5048879;28;20413;-78
2023/06/15 05:11:25;;;;;;;7.50;3.55;;;16.70;99.90;;;;;;5032179;28;20030;-78
2023/06/15 05:13:50;;;;;;;8.23;3.75;;;16.90;99.90;;;;;;5048329;28;20052;-78
2023/06/15 05:16:16;;;;;;;7.30;3.40;;;17.00;99.90;;;;;;5022447;28;20099;-79
2023/06/15 05:18:42;;;;;;;8.38;3.47;;;17.10;99.90;;;;;;5048171;28;20125;-78
2023/06/15 05:21:09;;;;;;;6.93;3.08;;;17.20;99.90;;;;;;5032455;28;20128;-78
2023/06/15 05:23:35;;;;;;;7.15;3.25;;;17.30;99.90;;;;;;5047932;28;20044;-79
2023/06/15 05:26:00;;;;;;;7.07;3.17;;;17.40;99.90;;;;;;5048739;28;20037;-78
2023/06/15 05:28:26;;;;;;;4.93;3.30;;;17.50;99.90;;;;;;5048611;28;20037;-79
2023/06/15 05:30:51;;;;;;;6.35;3.20;;;17.50;99.90;;;;;;5048596;28;20057;-78
2023/06/15 05:33:17;;;;;;;6.50;3.38;;;17.60;99.90;;;;;;5048838;28;20037;-79
2023/06/15 05:35:43;;;;;;;6.03;3.35;;;17.70;99.90;;;;;;5050447;28;20570;-79
2023/06/15 05:38:09;;;;;;;7.28;3.28;;;17.80;99.90;;;;;;5049137;28;20034;-79
2023/06/15 05:40:34;;;;;;;5.82;3.17;;;17.90;99.90;;;;;;5049061;28;20033;-79
2023/06/15 05:43:00;;;;;;;6.25;3.85;;;18.00;99.90;;;;;;5032337;28;20072;-78
2023/06/15 05:45:26;;;;;;;9.77;3.33;;;18.10;99.90;;;;;;5049151;28;20044;-79
2023/06/15 05:47:51;;;;;;;5.82;3.35;;;18.20;99.90;;;;;;5032557;28;20037;-78
2023/06/15 05:50:17;;;;;;;5.07;3.60;;;18.30;99.90;;;;;;5031358;28;20138;-78
2023/06/15 05:52:42;;;;;;;5.43;2.85;;;18.40;99.90;;;;;;5032382;28;20171;-79
2023/06/15 05:55:08;;;;;;;5.38;2.90;;;18.50;99.90;;;;;;5049152;28;20088;-78
2023/06/15 05:57:33;;;;;;;4.47;3.03;;;18.60;99.90;;;;;;5031662;28;20041;-79
2023/06/15 05:59:59;;;;;;;3.75;2.80;;;18.70;99.90;;;;;;5047983;28;20041;-79
2023/06/15 06:02:25;;;;;;;4.80;2.92;;;18.80;99.90;;;;;;5031494;28;20044;-79
2023/06/15 06:04:50;;;;;;;9.05;3.30;;;19.00;99.90;;;;;;5047525;28;20067;-79
2023/06/15 06:07:16;;;;;;;4.95;2.97;;;19.10;99.90;;;;;;5047925;28;20099;-79
2023/06/15 06:09:41;;;;;;;3.65;2.50;;;19.20;99.90;;;;;;5032086;28;20565;-79
2023/06/15 06:12:07;;;;;;;4.38;2.53;;;19.30;99.90;;;;;;5032119;28;20161;-79
2023/06/15 06:14:33;;;;;;;3.42;2.25;;;19.40;99.90;;;;;;5032836;28;20041;-78
2023/06/15 06:16:58;;;;;;;6.97;2.40;;;19.50;99.90;;;;;;5032246;28;20121;-79
2023/06/15 06:19:25;;;;;;;6.07;2.33;;;19.60;99.90;;;;;;5030966;28;20080;-78
2023/06/15 06:21:51;;;;;;;8.02;2.60;;;19.70;99.90;;;;;;5030725;28;20073;-79
2023/06/15 06:24:16;;;;;;;5.53;2.30;;;19.80;99.80;;;;;;5048483;28;20037;-78
2023/06/15 06:26:42;;;;;;;5.63;2.30;;;19.90;99.40;;;;;;5031170;28;20091;-79
2023/06/15 06:29:08;;;;;;;4.85;2.53;;;19.90;99.10;;;;;;5029351;28;20052;-80
2023/06/15 06:31:34;;;;;;;5.20;2.45;;;20.00;98.80;;;;;;5030513;28;20117;-78
2023/06/15 06:33:59;;;;;;;5.18;2.20;;;20.20;98.30;;;;;;5030595;28;20037;-79
2023/06/15 06:36:26;;;;;;;5.93;2.40;;;20.30;98.10;;;;;;5032711;28;20044;-78
2023/06/15 06:38:51;;;;;;;4.05;2.30;;;20.40;97.90;;;;;;5030472;28;20076;-77
2023/06/15 06:41:17;;;;;;;3.42;2.22;;;20.50;97.70;;;;;;5030719;28;20041;-78
2023/06/15 06:43:42;;;;;;;3.42;2.38;;;20.60;97.40;;;;;;5047301;28;20045;-78
2023/06/15 06:46:09;;;;;;;5.00;2.70;;;20.70;97.10;;;;;;5030711;28;20132;-78
2023/06/15 06:48:35;;;;;;;4.75;2.47;;;20.80;96.80;;;;;;5030639;28;20112;-77
2023/06/15 06:51:00;;;;;;;3.92;2.40;;;21.00;96.40;;;;;;5030031;28;20180;-78
2023/06/15 06:53:26;;;;;;;3.97;2.10;;;21.10;96.10;;;;;;5030613;28;20037;-77
2023/06/15 06:55:51;;;;;;;5.68;2.30;;;21.20;95.70;;;;;;5030926;28;20033;-78
2023/06/15 06:58:17;;;;;;;4.30;2.17;;;21.20;95.50;;;;;;5047175;28;20116;-78
2023/06/15 07:00:42;;;;;;;6.18;2.40;;;21.30;95.10;;;;;;5046621;28;20131;-78
2023/06/15 07:03:08;;;;;;;4.95;2.20;;;21.40;95.00;;;;;;5046378;28;20475;-78
2023/06/15 07:05:33;;;;;;;9.23;2.47;;;21.50;94.90;;;;;;5046622;28;20052;-78
2023/06/15 07:07:59;;;;;;;5.78;2.40;;;21.60;94.90;;;;;;5045799;28;20041;-78
2023/06/15 07:10:25;;;;;;;3.45;2.20;;;21.70;94.80;;;;;;5046539;28;20049;-78
2023/06/15 07:12:55;;;;;;;3.35;2.38;;;21.80;94.70;;;;;;5029423;28;20516;-78
2023/06/15 07:15:20;;;;;;;3.95;2.17;;;21.90;94.40;;;;;;5030398;28;20420;-78
2023/06/15 07:17:46;;;;;;;4.97;2.05;;;22.00;94.20;;;;;;5030249;28;20041;-78
2023/06/15 07:20:12;;;;;;;7.88;2.63;;;22.10;94.10;;;;;;5028292;28;20399;-78
2023/06/15 07:22:37;;;;;;;3.42;2.00;;;22.20;93.80;;;;;;5046268;28;20034;-77
2023/06/15 07:25:03;;;;;;;4.15;2.17;;;22.30;93.50;;;;;;5031360;28;20128;-77
2023/06/15 07:27:29;;;;;;;5.03;2.33;;;22.40;93.30;;;;;;5046359;28;20033;-77
2023/06/15 07:29:54;;;;;;;3.53;2.10;;;22.50;93.10;;;;;;5029709;28;20034;-77
2023/06/15 07:32:20;;;;;;;3.85;2.22;;;22.60;92.70;;;;;;5046234;28;20558;-77
2023/06/15 07:34:45;;;;;;;3.42;2.20;;;22.70;92.40;;;;;;5046777;28;20029;-77
2023/06/15 07:37:11;;;;;;;5.95;2.40;;;22.70;92.20;;;;;;5013443;28;20089;-77
2023/06/15 07:39:36;;;;;;;5.50;2.30;;;22.80;92.00;;;;;;5029444;28;20156;-77
2023/06/15 07:42:02;;;;;;;4.85;2.42;;;22.80;91.30;;;;;;5029198;28;20414;-77
2023/06/15 07:44:28;;;;;;;4.47;2.35;;;22.90;91.70;;;;;;5042998;28;20037;-77
2023/06/15 07:46:53;;;;;;;5.05;2.40;;;23.10;91.90;;;;;;5028067;28;20048;-77
2023/06/15 07:49:19;;;;;;;9.40;2.53;;;23.20;91.80;;;;;;5029508;28;20413;-77
2023/06/15 07:51:45;;;;;;;4.35;2.22;;;23.30;91.40;;;;;;5045616;28;20041;-77
2023/06/15 07:54:11;;;;;;;6.82;2.25;;;23.40;91.40;;;;;;5005249;28;20084;-77
2023/06/15 07:56:36;;;;;;;3.88;2.40;;;23.50;91.10;;;;;;5029597;28;20037;-77
2023/06/15 07:59:02;;;;;;;6.70;2.30;;;23.50;90.80;;;;;;5029516;28;20448;-77
2023/06/15 08:01:27;;;;;;;5.13;2.03;;;23.50;90.40;;;;;;5045590;28;20033;-77
2023/06/15 08:03:53;;;;;;;5.40;2.03;;;23.70;90.50;;;;;;5028612;28;20053;-77
2023/06/15 08:06:18;;;;;;;4.28;2.25;;;23.80;90.20;;;;;;5045784;28;20038;-77
2023/06/15 08:08:45;;;;;;;3.03;2.10;;;23.90;90.40;;;;;;5028948;28;20041;-76
2023/06/15 08:11:10;;;;;;;4.22;2.00;;;24.00;90.30;;;;;;5015724;28;20091;-77
2023/06/15 08:13:37;;;;;;;3.70;1.88;;;24.10;90.30;;;;;;5029770;28;20029;-76
2023/06/15 08:16:05;;;;;;;4.10;2.10;;;24.20;90.00;;;;;;5031463;28;20049;-76
2023/06/15 08:18:31;;;;;;;4.18;2.08;;;24.20;89.80;;;;;;5045521;28;20497;-77
2023/06/15 08:20:57;;;;;;;6.70;2.50;;;24.40;89.90;;;;;;5030750;28;20092;-77
2023/06/15 08:23:23;;;;;;;4.05;2.03;;;24.40;89.50;;;;;;5032580;28;20461;-77
2023/06/15 08:25:52;;;;;;;5.50;2.17;;;24.50;89.10;;;;;;5028584;28;20405;-77
2023/06/15 08:28:17;;;;;;;6.00;2.20;;;24.50;88.30;;;;;;5032173;28;20041;-76
2023/06/15 08:30:43;;;;;;;4.40;2.30;;;24.50;88.60;;;;;;5048515;28;20045;-77
2023/06/15 08:33:08;;;;;;;3.95;2.10;;;24.60;88.40;;;;;;5048473;28;20127;-77
2023/06/15 08:35:34;;;;;;;7.75;2.10;;;24.70;87.90;;;;;;5032194;28;20037;-77
2023/06/15 08:38:00;;;;;;;4.40;2.10;;;24.70;87.40;;;;;;5048717;28;20042;-76
2023/06/15 08:40:26;;;;;;;4.70;2.40;;;24.70;87.00;;;;;;5032003;28;20043;-77
2023/06/15 08:42:53;;;;;;;3.10;1.98;;;24.80;86.80;;;;;;5048309;28;20112;-76
2023/06/15 08:45:18;;;;;;;4.32;1.92;;;24.80;86.00;;;;;;5031903;28;20044;-76
2023/06/15 08:47:45;;;;;;;4.35;2.00;;;24.80;86.00;;;;;;5031387;28;20030;-76
2023/06/15 08:50:10;;;;;;;7.90;2.35;;;24.80;85.30;;;;;;5032117;28;20141;-76
2023/06/15 08:52:38;;;;;;;4.53;2.28;;;24.80;85.30;;;;;;5048072;28;20117;-76
2023/06/15 08:55:04;;;;;;;5.22;2.05;;;24.80;85.00;;;;;;5048395;28;20072;-76
2023/06/15 08:57:32;;;;;;;4.47;2.15;;;24.90;85.10;;;;;;5048523;28;20548;-76
2023/06/15 08:59:58;;;;;;;5.50;1.90;;;24.90;84.80;;;;;;5031668;28;20068;-75
2023/06/15 09:02:25;;;;;;;5.47;2.08;;;24.90;84.30;;;;;;5031332;28;20088;-76
2023/06/15 09:04:51;;;;;;;5.63;2.22;;;24.90;83.50;;;;;;5031727;28;20129;-75
2023/06/15 09:07:21;;;;;;;6.75;2.25;;;24.90;83.00;;;;;;5031611;28;20041;-75
2023/06/15 09:10:08;;;;;;;3.00;1.98;;;24.90;82.00;;;;;;5028304;28;20037;-76
2023/06/15 09:12:33;;;;;;;4.95;2.38;;;24.90;81.60;;;;;;5031253;28;20041;-74
2023/06/15 09:14:59;;;;;;;3.88;2.20;;;25.00;81.80;;;;;;5031589;28;20404;-74
2023/06/15 09:17:28;;;;;;;5.25;2.22;;;25.00;81.20;;;;;;5031471;28;20079;-74
2023/06/15 09:19:53;;;;;;;5.13;1.95;;;25.00;80.60;;;;;;5047838;28;20041;-75
2023/06/15 09:22:19;;;;;;;3.85;2.15;;;25.00;81.20;;;;;;5031113;28;20038;-74
2023/06/15 09:24:46;;;;;;;5.53;2.28;;;25.10;81.30;;;;;;5030980;28;20107;-74
2023/06/15 09:27:15;;;;;;;5.25;2.17;;;25.10;81.40;;;;;;5031327;28;20037;-75
2023/06/15 09:30:02;;;;;;;3.83;2.40;;;25.10;81.40;;;;;;5031027;28;20083;-75
2023/06/15 09:32:29;;;;;;;4.85;2.47;;;25.20;80.70;;;;;;5030962;28;20044;-73
2023/06/15 09:34:59;;;;;;;4.97;2.20;;;25.20;79.90;;;;;;5031264;28;20412;-74
2023/06/15 09:37:28;;;;;;;4.57;2.30;;;25.10;79.30;;;;;;5047626;28;20120;-74
2023/06/15 09:39:54;;;;;;;3.53;2.28;;;25.20;79.70;;;;;;5032299;28;20116;-74
2023/06/15 09:42:28;;;;;;;4.18;2.40;;;25.20;79.70;;;;;;5030682;28;20466;-74
2023/06/15 09:45:01;;;;;;;4.43;2.10;;;25.30;79.90;;;;;;5030830;28;20041;-74
2023/06/15 09:47:31;;;;;;;2.97;2.20;;;25.40;80.20;;;;;;5047751;28;20497;-73
2023/06/15 09:50:00;;;;;;;3.42;2.20;;;25.40;79.50;;;;;;5030575;28;20049;-74
2023/06/15 09:52:26;;;;;;;5.65;2.45;;;25.40;78.70;;;;;;5030432;28;20049;-74
2023/06/15 09:54:53;;;;;;;3.50;2.00;;;25.50;79.50;;;;;;5047351;28;20041;-74
2023/06/15 09:57:19;;;;;;;5.75;2.35;;;25.60;79.80;;;;;;5047141;28;20037;-74
2023/06/15 09:59:48;;;;;;;4.82;2.20;;;25.60;79.00;;;;;;5047125;28;20095;-75
2023/06/15 10:02:17;;;;;;;5.05;2.22;;;25.70;79.70;;;;;;5030149;28;20084;-74
2023/06/15 10:04:46;;;;;;;3.13;2.15;;;25.70;79.40;;;;;;5030470;28;20049;-74
2023/06/15 10:07:13;;;;;;;4.80;2.17;;;25.80;79.50;;;;;;5030462;28;20120;-74
2023/06/15 10:09:49;;;;;;;2.97;2.00;;;25.90;78.70;;;;;;5030406;28;20042;-74
2023/06/15 10:12:25;;;;;;;5.70;2.63;;;25.90;78.10;;;;;;5029856;28;20045;-73
2023/06/15 10:15:03;;;;;;;3.65;2.17;;;25.90;78.30;;;;;;5027794;28;20046;-73
2023/06/15 10:17:35;;;;;;;7.47;2.50;;;26.00;78.40;;;;;;5047002;28;20152;-74
2023/06/15 10:20:13;;;;;;;6.38;2.55;;;25.90;78.10;;;;;;5029246;28;20462;-74
2023/06/15 10:22:50;;;;;;;3.53;2.33;;;26.10;78.10;;;;;;5045974;28;20095;-73
2023/06/15 10:25:16;;;;;;;3.88;2.30;;;26.10;77.30;;;;;;5030393;28;20083;-74
2023/06/15 10:27:43;;;;;;;2.78;1.80;;;26.20;76.90;;;;;;5046640;28;20119;-73
2023/06/15 10:30:35;;;;;;;4.90;2.00;;;26.20;75.90;;;;;;5046489;28;20041;-73
2023/06/15 10:33:26;;;;;;;4.47;2.20;;;26.30;72.60;;;;;;5030003;28;20037;-74
2023/06/15 10:36:02;;;;;;;3.92;2.00;;;26.30;73.90;;;;;;5045966;28;20083;-73
2023/06/15 10:38:44;;;;;;;6.97;2.40;;;26.40;76.50;;;;;;5029998;28;20069;-73
2023/06/15 10:41:10;;;;;;;5.45;2.20;;;26.50;76.90;;;;;;5029514;28;20084;-74
2023/06/15 10:43:35;;;;;;;2.65;2.10;;;26.60;75.70;;;;;;5030129;28;20072;-73
2023/06/15 10:46:02;;;;;;;4.47;2.00;;;26.70;74.90;;;;;;5046542;28;20041;-73
2023/06/15 10:48:29;;;;;;;6.03;1.70;;;26.80;74.70;;;;;;5029893;28;20128;-75
2023/06/15 10:51:05;;;;;;;3.78;1.83;;;26.80;74.40;;;;;;5029514;28;20144;-73
2023/06/15 10:53:40;;;;;;;3.55;2.45;;;26.90;73.20;;;;;;5030045;28;20418;-73
2023/06/15 10:56:14;;;;;;;3.38;2.20;;;27.00;72.20;;;;;;5029907;28;20073;-73
2023/06/15 10:59:01;;;;;;;4.63;1.92;;;27.00;72.90;;;;;;5046437;28;20037;-74
2023/06/15 11:01:29;;;;;;;3.20;2.10;;;27.20;72.60;;;;;;5023425;28;20041;-72
2023/06/15 11:03:56;;;;;;;2.10;1.55;;;27.20;70.90;;;;;;5042876;28;20049;-73
2023/06/15 11:06:30;;;;;;;2.80;1.73;;;27.30;71.50;;;;;;5012239;28;20095;-73
2023/06/15 11:09:12;;;;;;;2.97;2.08;;;27.40;71.10;;;;;;5030846;28;20038;-73
2023/06/15 11:11:41;;;;;;;3.08;1.88;;;27.60;71.20;;;;;;5022391;28;20048;-72
2023/06/15 11:14:23;;;;;;;6.57;1.98;;;27.60;71.60;;;;;;5029411;28;20041;-74
2023/06/15 11:17:02;;;;;;;3.83;2.10;;;27.70;70.90;;;;;;5046374;28;20412;-73
2023/06/15 11:19:29;;;;;;;5.93;1.90;;;27.90;70.80;;;;;;5029282;28;20033;-73
2023/06/15 11:21:59;;;;;;;5.05;1.90;;;28.00;70.60;;;;;;5029075;28;20072;-72
2023/06/15 11:24:26;;;;;;;5.20;1.95;;;28.10;70.00;;;;;;5029334;28;20041;-74
2023/06/15 11:26:54;;;;;;;3.45;2.00;;;28.20;69.40;;;;;;5029303;28;20107;-72
2023/06/15 11:29:25;;;;;;;4.45;2.13;;;28.30;70.20;;;;;;5030617;28;20052;-72
2023/06/15 11:31:54;;;;;;;4.50;1.90;;;28.30;69.70;;;;;;5028933;28;20077;-71
2023/06/15 11:34:20;;;;;;;2.60;1.92;;;28.40;69.00;;;;;;5045863;28;20037;-72
2023/06/15 11:36:46;;;;;;;2.88;1.90;;;28.00;66.40;;;;;;5029171;28;20113;-72
2023/06/15 11:39:22;;;;;;;5.05;1.75;;;28.30;67.80;;;;;;5029463;28;20461;-72
2023/06/15 11:41:49;;;;;;;2.97;1.92;;;28.50;67.90;;;;;;5028986;28;20080;-73
2023/06/15 11:44:15;;;;;;;2.80;2.10;;;28.70;68.90;;;;;;5023013;28;20041;-72
2023/06/15 11:46:41;;;;;;;6.15;2.30;;;28.90;68.70;;;;;;5029575;28;20452;-73
2023/06/15 11:49:11;;;;;;;4.43;2.10;;;29.00;68.10;;;;;;5033228;28;20056;-72
2023/06/15 11:51:37;;;;;;;3.45;1.88;;;29.00;67.20;;;;;;5032565;28;20091;-72
2023/06/15 11:54:07;;;;;;;3.58;1.92;;;29.30;67.30;;;;;;5032819;28;20037;-72
2023/06/15 11:56:33;;;;;;;3.70;2.00;;;29.50;67.10;;;;;;5034249;28;20076;-72
2023/06/15 11:58:59;;;;;;;3.30;2.10;;;29.50;67.80;;;;;;5033048;28;20065;-72
2023/06/15 12:01:26;;;;;;;5.45;2.08;;;29.70;67.70;;;;;;5032246;28;20041;-71
2023/06/15 12:03:52;;;;;;;3.95;2.08;;;29.90;67.80;;;;;;5032777;28;20052;-72
2023/06/15 12:06:22;;;;;;;5.38;1.90;;;29.90;67.40;;;;;;5032642;28;20037;-72
2023/06/15 12:08:52;;;;;;;4.20;2.13;;;30.10;68.00;;;;;;5032601;28;20045;-71
2023/06/15 12:11:26;;;;;;;4.93;1.98;;;30.20;68.00;;;;;;5031489;28;20030;-72
2023/06/15 12:13:51;;;;;;;5.47;2.47;;;30.30;65.80;;;;;;5033568;28;20073;-71
2023/06/15 12:16:17;;;;;;;5.53;2.15;;;30.40;66.90;;;;;;5033874;28;20072;-71
2023/06/15 12:18:42;;;;;;;3.70;2.03;;;30.50;66.70;;;;;;5047775;28;20241;-70
2023/06/15 12:21:08;;;;;;;3.40;2.10;;;30.50;66.80;;;;;;5048635;28;20400;-71
2023/06/15 12:23:34;;;;;;;4.85;2.13;;;30.60;66.70;;;;;;5032824;28;20051;-71
2023/06/15 12:26:01;;;;;;;5.20;2.30;;;30.70;66.50;;;;;;5032328;28;20045;-70
2023/06/15 12:28:30;;;;;;;4.57;2.10;;;30.80;66.50;;;;;;5048697;28;20041;-71
2023/06/15 12:31:00;;;;;;;3.85;2.00;;;30.90;66.20;;;;;;5033322;28;20045;-71
2023/06/15 12:33:31;;;;;;;10.70;2.25;;;30.80;64.20;;;;;;5032011;28;20120;-70
2023/06/15 12:35:58;;;;;;;4.35;2.65;;;30.90;64.90;;;;;;5032358;28;20106;-71
2023/06/15 12:38:26;;;;;;;3.88;2.35;;;31.10;66.20;;;;;;5048596;28;20041;-70
2023/06/15 12:40:52;;;;;;;3.95;2.30;;;31.20;66.80;;;;;;5031884;28;20051;-71
2023/06/15 12:43:18;;;;;;;4.72;2.03;;;31.20;67.10;;;;;;5031681;28;20048;-72
2023/06/15 12:45:44;;;;;;;3.47;2.35;;;31.20;66.50;;;;;;5032053;28;20121;-71
2023/06/15 12:48:10;;;;;;;5.22;2.00;;;31.40;65.90;;;;;;5048298;28;20116;-71